Terminal Aerodrome Forecast
Issued by NWS Shreveport, LA

Home | Current Version | Previous Version | Text Only | Print | Product List | Glossary On
Versions: 1 2 3 4 5 6 7 8 9 10 11 12 13 14 15 16 17 18 19 20 21 22 23 24 25 26 27 28
000
FTUS44 KSHV 170543
TAFELD
TAF
KELD 170543Z 1706/1806 17006KT P6SM BKN025 OVC050
     FM171000 19008KT 6SM BR VCSH OVC010
     FM171400 18005KT 2SM BR VCSH OVC005
     FM171800 22008KT P6SM OVC010
     FM172000 25007KT P6SM BKN015
     FM180100 32003KT P6SM SCT015 SCT250=

USA.gov is the U.S. government's official web portal to all federal, state and local government web resources and services.